Tiempo atmosférico en la estación meteorológica de Caldes De Montbui, Barcelona (168 m.)



Fecha
DESCASC
Temp. máxima en grados centígrados (hora)
DESCASC
Temp. mínima en grados centígrados (hora)
DESCASC
Temp. media en grados centígrados
DESCASC
Racha de viento máxima en m/sg (hora)
DESCASC
Velocidad máxima media en intervalos de 10 minutos(hora)
DESCASC
Precipitaciones diarias en mm
DESCASC
Precipitaciones de 00:00 a 06:00 en mm
DESCASC
Precipitaciones de 06:00 a 12:00 en mm
DESCASC
Precipitaciones de 12:00 a 18:00 en mm
DESCASC
Precipitaciones de 18:00 a 24:00 en mm
DESCASC
21-02-2021 15.3 (14:20) 3.5 (05:40) 9.4 13.06 (12:10) 5 (13:10) 0 0 0 0 0
20-02-2021 15.4 (14:40) 4.4 (01:20) 9.9 5 (23:30) 3.89 (23:20) 0 0 0 0 0
19-02-2021 16.6 (15:50) 4.5 (02:30) 10.6 5.56 (16:30) 3.61 (16:30) 0 0 0 0 0
18-02-2021 15.7 (15:50) 4.3 (00:00) 10 5.28 (17:00) 3.89 (17:10) 0 0 0 0 0
17-02-2021 17.9 (13:40) 4.6 (00:00) 11.2 5.83 (13:20) 3.89 (15:50) 0 0 0 0 0
16-02-2021 16 (14:40) 5.8 (00:00) 10.9 8.89 (14:20) 5.83 (12:10) 0 0 0 0 0
15-02-2021 9.5 (16:10) 6.1 (00:00) 7.8 3.33 (01:10) 2.5 (01:30) 0 0 0 0 0
14-02-2021 11.2 (00:00) 6.3 (00:00) 8.8 5.83 (04:00) 3.61 (01:30) 1.4 0.4 0.8 0.2 0
13-02-2021 16.9 (14:30) 5.8 (00:00) 11.3 7.5 (14:50) 5 (14:50) 0 0 0 0 0
12-02-2021 16.7 (15:40) 4.2 (00:00) 10.5 9.44 (17:00) 5 (17:00) 0.2 0 0 0 0.2
11-02-2021 17.9 (16:10) 2 (00:00) 9.9 6.67 (16:30) 3.89 (16:30) 0 0 0 0 0
10-02-2021 14.5 (15:30) 3.8 (00:00) 9.1 10 (13:30) 6.39 (13:30) 0 0 0 0 0
09-02-2021 13.8 (14:10) 3.4 (00:00) 8.6 9.72 (04:20) 5.28 (19:20) 0.2 0 0 0 0.2
08-02-2021 12.7 (11:30) 3.2 (00:00) 7.9 10 (12:20) 6.39 (12:30) 1.2 0 0 1.2 0
07-02-2021 11.7 (15:40) 5 (00:00) 8.3 7.22 (15:00) 3.89 (15:00) 0.2 0 0.2 0 0
06-02-2021 18.1 (15:10) 7.9 (00:00) 13 6.67 (17:00) 4.17 (17:20) 0 0 0 0 0
05-02-2021 17.6 (15:50) 8.9 (00:00) 13.3 5 (12:20) 3.06 (08:20) 0 0 0 0 0
04-02-2021 18.3 (13:30) 6 (00:00) 12.1 4.72 (15:20) 3.33 (15:10) 0 0 0 0 0
03-02-2021 21.6 (13:40) 5.4 (00:00) 13.5 8.33 (11:10) 5.28 (10:50) 0 0 0 0 0
02-02-2021 20.1 (14:00) 6 (00:00) 13.1 7.22 (11:50) 3.89 (14:30) 0 0 0 0 0
01-02-2021 18.9 (16:00) 7.3 (00:00) 13.1 15.28 (14:40) 9.44 (14:40) 1 1 0 0 0
31-01-2021 17.1 (14:30) 5.5 (00:00) 11.3 13.89 (04:40) 8.61 (04:40) 0 0 0 0 0
30-01-2021 17.8 (15:50) 6.2 (00:00) 12 17.78 (16:30) 8.61 (16:30) 0.2 0 0 0.2 0
29-01-2021 20.6 (15:30) 7.2 (00:00) 13.9 12.78 (04:40) 6.11 (04:40) 0 0 0 0 0
28-01-2021 19.8 (14:10) 5.7 (00:00) 12.7 8.89 (09:50) 5 (09:50) 0 0 0 0 0
27-01-2021 18.8 (16:00) 1.7 (00:00) 10.2 3.33 (12:20) 2.5 (19:40) 0 0 0 0 0
26-01-2021 13.3 (15:30) 4.2 (00:00) 8.8 7.5 (14:40) 4.72 (14:40) 0 0 0 0 0
25-01-2021 14.1 (13:50) 4.6 (00:00) 9.4 6.94 (02:00) 4.17 (02:00) 0 0 0 0 0

Gráficas

Temp. máximas Temp. mínimas Temp. medias Precipitaciones Rachas de viento máximas Velocidades máximas media en intervalos de 10 minutos

Datos horarios

Fecha y hora oficial Temperatura (ºC) Velocidad del viento (km/h) Dirección del viento Racha (km/h) Dirección de racha Precipitación (mm) Presión (hPa) Tendencia (hPa) Humedad (%)
2021-02-23 23:00:00 13 3 Noroeste 6 Norte 0 -- -- 93
2021-02-23 22:00:00 13.3 0 Calma 7 Nordeste 0 -- -- 92
2021-02-23 21:00:00 13.3 2 Nordeste 9 Nordeste 0 -- -- 91
2021-02-23 20:00:00 13.5 0 Calma 5 Este 0 -- -- 91
2021-02-23 19:00:00 13.9 4 Sudeste 13 Este 0 -- -- 87
2021-02-23 18:00:00 15.8 8 Sudeste 16 Sudeste 0 -- -- 81
2021-02-23 17:00:00 18.2 6 Este 10 Sudeste 0 -- -- 68
2021-02-23 16:00:00 18.6 5 Sudeste 8 Sudeste 0 -- -- 66
2021-02-23 15:00:00 17.5 5 Noroeste 9 Norte 0 -- -- 69
2021-02-23 14:00:00 17.2 2 Sudoeste 12 Este 0 -- -- 76
2021-02-23 13:00:00 16.6 7 Este 15 Este 0 -- -- 77
2021-02-23 12:00:00 16.8 9 Sudeste 14 Este 0 -- -- 78
2021-02-23 11:00:00 15.3 3 Este 8 Sudoeste 0 -- -- 84
2021-02-23 10:00:00 13.4 0 Calma 6 Noroeste 0 -- -- 91
2021-02-23 09:00:00 11.3 3 Sudoeste 5 Sudoeste 0 -- -- 99
2021-02-23 08:00:00 10.6 2 Oeste 7 Sudoeste 0 -- -- 99
2021-02-23 07:00:00 10.5 2 Sudoeste 8 Oeste 0 -- -- 99
2021-02-23 06:00:00 9.8 6 Oeste 8 Oeste 0 -- -- 98
2021-02-23 05:00:00 11.2 3 Oeste 8 Norte 0 -- -- 96
2021-02-23 04:00:00 11.5 3 Norte 6 Norte 0 -- -- 96
2021-02-23 03:00:00 11.7 3 Noroeste 16 Norte 0.2 -- -- 96
2021-02-23 02:00:00 11.8 7 Norte 14 Norte 0 -- -- 97
2021-02-23 01:00:00 11.7 5 Norte 11 Norte 0 -- -- 97
2021-02-23 00:00:00 11.8 6 Norte 12 Nordeste 0 -- -- 96
2021-02-22 23:00:00 11.5 3 Norte 8 Norte 0.2 -- -- 97
2021-02-22 22:00:00 11.2 4 Noroeste 7 Noroeste 0 -- -- 98
2021-02-22 21:00:00 11.3 3 Norte 5 Sur 0.6 -- -- 98
2021-02-22 20:00:00 11.6 7 Sudeste 13 Sudeste 1.8 -- -- 97
2021-02-22 19:00:00 11.9 0 Calma 10 Oeste 0 -- -- 95
2021-02-22 18:00:00 12.5 5 Sur 9 Sur 0 -- -- 91
2021-02-22 17:00:00 13.1 6 Sur 12 Sudeste 0 -- -- 88
2021-02-22 16:00:00 13.3 3 Sudeste 7 Norte 0 -- -- 93
2021-02-22 15:00:00 13.1 0 Calma 9 Norte 0 -- -- 93
2021-02-22 14:00:00 13.2 4 Noroeste 10 Noroeste 0 -- -- 93
2021-02-22 13:00:00 13.1 0 Calma 7 Noroeste 0.8 -- -- 91
2021-02-22 12:00:00 12.9 0 Calma 8 Oeste 0.8 -- -- 95
2021-02-22 11:00:00 12.7 4 Sudeste 8 Sudeste 1.8 -- -- 97
2021-02-22 10:00:00 12.9 0 Calma 5 Noroeste 0.8 -- -- 98
2021-02-22 09:00:00 12.9 4 Sudeste 22 Sudeste 3.2 -- -- 98
2021-02-22 08:00:00 13.2 6 Nordeste 20 Norte 0.2 -- -- 96
2021-02-22 07:00:00 13.5 9 Nordeste 22 Nordeste 0 -- -- 93
2021-02-22 06:00:00 13.5 6 Nordeste 30 Este 0 -- -- 92
2021-02-22 05:00:00 13.8 10 Nordeste 33 Norte 0 -- -- 88
2021-02-22 04:00:00 13.6 13 Nordeste 31 Nordeste 0 -- -- 89
2021-02-22 03:00:00 13.8 10 Nordeste 32 Nordeste 0 -- -- 87
2021-02-22 02:00:00 13.9 16 Norte 39 Norte 0 -- -- 85
2021-02-22 01:00:00 13.9 18 Norte 35 Nordeste 0 -- -- 82
2021-02-22 00:00:00 14 17 Norte 39 Norte 0 -- -- 80
2021-02-21 23:00:00 13.9 12 Norte 34 Nordeste 0 -- -- 79
2021-02-21 22:00:00 13.8 14 Nordeste 35 Norte 0 -- -- 78
2021-02-21 21:00:00 13.6 15 Norte 42 Nordeste 0 -- -- 78
2021-02-21 20:00:00 13.4 13 Nordeste 44 Norte 0 -- -- 78
2021-02-21 19:00:00 13.2 13 Nordeste 37 Norte 0 -- -- 79
2021-02-21 18:00:00 13.5 13 Nordeste 36 Este 0 -- -- 77
2021-02-21 17:00:00 14 15 Nordeste 45 Este 0 -- -- 74
2021-02-21 16:00:00 14.4 14 Nordeste 37 Nordeste 0 -- -- 71
2021-02-21 15:00:00 15.1 14 Nordeste 44 Nordeste 0 -- -- 70
2021-02-21 14:00:00 15 16 Nordeste 43 Norte 0 -- -- 68
2021-02-21 13:00:00 14.8 16 Nordeste 47 Norte 0 -- -- 69
2021-02-21 12:00:00 14.5 14 Nordeste 37 Norte 0 -- -- 70
2021-02-21 11:00:00 13.9 14 Nordeste 35 Nordeste 0 -- -- 73
2021-02-21 10:00:00 11.6 9 Norte 18 Norte 0 -- -- 81
2021-02-21 09:00:00 7.6 5 Noroeste 9 Noroeste 0 -- -- 94
2021-02-21 08:00:00 7.6 4 Noroeste 15 Norte 0 -- -- 88
2021-02-21 07:00:00 7.5 11 Noroeste 15 Noroeste 0 -- -- 92
2021-02-21 06:00:00 4.2 9 Noroeste 13 Noroeste 0 -- -- 96
2021-02-21 05:00:00 4.3 8 Noroeste 12 Oeste 0 -- -- 94
2021-02-21 04:00:00 4.6 9 Noroeste 13 Oeste 0 -- -- 95
2021-02-21 03:00:00 4.8 10 Noroeste 13 Noroeste 0 -- -- 96
2021-02-21 02:00:00 5.2 11 Noroeste 14 Noroeste 0 -- -- 95
2021-02-21 01:00:00 5.9 10 Noroeste 17 Noroeste 0 -- -- 95
2021-02-21 00:00:00 6 10 Noroeste 18 Noroeste 0 -- -- 95
2021-02-20 23:00:00 6.4 12 Noroeste 15 Noroeste 0 -- -- 96
2021-02-20 22:00:00 8 6 Noroeste 9 Oeste 0 -- -- 90
2021-02-20 21:00:00 9.4 3 Noroeste 5 Norte 0 -- -- 92
2021-02-20 20:00:00 8.6 5 Noroeste 7 Norte 0 -- -- 95
2021-02-20 19:00:00 8.7 0 Calma 11 Sudeste 0 -- -- 87
2021-02-20 18:00:00 12.4 9 Sudeste 15 Sudeste 0 -- -- 78
2021-02-20 17:00:00 14.6 9 Sudeste 17 Sudeste 0 -- -- 70
2021-02-20 16:00:00 14.8 3 Sudeste 15 Sudeste 0 -- -- 70
2021-02-20 15:00:00 15.3 11 Sudeste 17 Sudeste 0 -- -- 70
2021-02-20 14:00:00 14.9 10 Sudeste 17 Sudeste 0 -- -- 71
2021-02-20 13:00:00 12.8 3 Noroeste 12 Sur 0 -- -- 77
2021-02-20 12:00:00 12 4 Sudeste 8 Sudeste 0 -- -- 83
2021-02-20 11:00:00 9.7 0 Calma 5 Oeste 0 -- -- 92
2021-02-20 10:00:00 7.7 0 Calma 10 Noroeste 0 -- -- 93
2021-02-20 09:00:00 6.1 6 Noroeste 12 Noroeste 0 -- -- 98
2021-02-20 08:00:00 4.9 7 Noroeste 11 Noroeste 0 -- -- 100
2021-02-20 07:00:00 4.5 10 Noroeste 14 Noroeste 0 -- -- 100
2021-02-20 06:00:00 4.7 9 Noroeste 11 Noroeste 0 -- -- 100
2021-02-20 05:00:00 5.2 7 Noroeste 10 Noroeste 0 -- -- 100
2021-02-20 04:00:00 5.7 3 Oeste 6 Oeste 0 -- -- 100
2021-02-20 03:00:00 6 3 Noroeste 5 Oeste 0 -- -- 100
2021-02-20 02:00:00 5.2 2 Oeste 8 Oeste 0 -- -- 99
2021-02-20 01:00:00 4.6 4 Oeste 9 Noroeste 0 -- -- 93
2021-02-20 00:00:00 5.5 8 Noroeste 11 Noroeste 0 -- -- 94
2021-02-19 23:00:00 5.9 8 Noroeste 10 Noroeste 0 -- -- 95
2021-02-19 22:00:00 6.4 7 Noroeste 9 Noroeste 0 -- -- 96
2021-02-19 21:00:00 7.4 6 Noroeste 12 Noroeste 0 -- -- 96
2021-02-19 20:00:00 7.6 4 Noroeste 9 Sur 0 -- -- 94
2021-02-19 19:00:00 10.9 5 Sur 12 Sur 0 -- -- 87
2021-02-19 18:00:00 13.5 6 Sur 15 Sudeste 0 -- -- 77
2021-02-19 17:00:00 15 12 Sudeste 20 Sudeste 0 -- -- 73
2021-02-19 16:00:00 16.6 11 Sudeste 16 Sudeste 0 -- -- 65
2021-02-19 15:00:00 15.9 8 Sudeste 17 Sudeste 0 -- -- 65
2021-02-19 14:00:00 14.6 8 Sudeste 14 Sudeste 0 -- -- 71
2021-02-19 13:00:00 12.9 8 Sur 14 Sur 0 -- -- 79
2021-02-19 12:00:00 10.5 7 Sudoeste 12 Sur 0 -- -- 88
2021-02-19 11:00:00 9.5 3 Sudeste 10 Sur 0 -- -- 92
2021-02-19 10:00:00 9 4 Noroeste 9 Noroeste 0 -- -- 94
2021-02-19 09:00:00 7.8 6 Noroeste 9 Noroeste 0 -- -- 95
2021-02-19 08:00:00 6.9 8 Noroeste 11 Noroeste 0 -- -- 96
2021-02-19 07:00:00 6.7 9 Noroeste 14 Noroeste 0 -- -- 97
2021-02-19 06:00:00 6.6 11 Noroeste 15 Noroeste 0 -- -- 99
2021-02-19 05:00:00 6.9 9 Noroeste 13 Noroeste 0 -- -- 99
2021-02-19 04:00:00 6.6 6 Noroeste 10 Noroeste 0 -- -- 99
2021-02-19 03:00:00 5.2 3 Noroeste 6 Noroeste 0 -- -- 99
2021-02-19 02:00:00 5.5 3 Noroeste 8 Noroeste 0 -- -- 98
2021-02-19 01:00:00 6.1 7 Noroeste 12 Noroeste 0 -- -- 97
2021-02-19 00:00:00 7.1 6 Noroeste 7 Noroeste 0 -- -- 96
2021-02-18 23:00:00 8 4 Noroeste 8 Oeste 0 -- -- 95
2021-02-18 22:00:00 8.7 3 Noroeste 6 Noroeste 0 -- -- 98
2021-02-18 21:00:00 6.7 6 Noroeste 9 Noroeste 0 -- -- 97
2021-02-18 20:00:00 7.7 2 Norte 6 Sudeste 0 -- -- 94
2021-02-18 19:00:00 8.7 0 Calma 9 Sudeste 0 -- -- 89
2021-02-18 18:00:00 12.2 9 Sudeste 18 Sudeste 0 -- -- 82
2021-02-18 17:00:00 14.4 12 Sudeste 19 Sudeste 0 -- -- 74
2021-02-18 16:00:00 15.6 7 Sudeste 13 Este 0 -- -- 70
2021-02-18 15:00:00 14.9 6 Sudeste 17 Este 0 -- -- 71
2021-02-18 14:00:00 13.7 5 Este 14 Sudoeste 0 -- -- 77
2021-02-18 13:00:00 11.1 8 Sudoeste 16 Sudoeste 0 -- -- 92
2021-02-18 12:00:00 9.4 4 Sudoeste 9 Sudoeste 0 -- -- 100
2021-02-18 11:00:00 8 3 Noroeste 8 Oeste 0 -- -- 100
2021-02-18 10:00:00 7.1 5 Noroeste 10 Noroeste 0 -- -- 100
2021-02-18 09:00:00 6.5 7 Noroeste 9 Noroeste 0 -- -- 100
2021-02-18 08:00:00 6.2 3 Oeste 10 Oeste 0 -- -- 100
2021-02-18 07:00:00 6.2 5 Noroeste 9 Noroeste 0 -- -- 100
2021-02-18 06:00:00 6.2 4 Oeste 8 Sudoeste 0 -- -- 100
2021-02-18 05:00:00 6.8 5 Sudoeste 8 Noroeste 0 -- -- 100
2021-02-18 04:00:00 7.1 4 Oeste 6 Oeste 0 -- -- 100
2021-02-18 03:00:00 7.5 6 Noroeste 7 Noroeste 0 -- -- 100
2021-02-18 02:00:00 5.2 0 Calma 4 Noroeste 0 -- -- 100
2021-02-18 01:00:00 5.3 2 Noroeste 5 Noroeste 0 -- -- 98
2021-02-18 00:00:00 5.8 3 Noroeste 5 Noroeste 0 -- -- 97
2021-02-17 23:00:00 7.2 3 Noroeste 6 Noroeste 0 -- -- 96
2021-02-17 22:00:00 7.3 4 Noroeste 7 Noroeste 0 -- -- 95
2021-02-17 21:00:00 8.5 3 Oeste 10 Noroeste 0 -- -- 92
2021-02-17 20:00:00 9 5 Noroeste 10 Noroeste 0 -- -- 92
2021-02-17 19:00:00 11.4 10 Sudeste 13 Sudeste 0 -- -- 87
2021-02-17 18:00:00 13.6 8 Sudeste 15 Sudeste 0 -- -- 76
2021-02-17 17:00:00 15.7 11 Sudeste 17 Sudeste 0 -- -- 70
2021-02-17 16:00:00 17 13 Sudeste 20 Sur 0 -- -- 66
2021-02-17 15:00:00 17.6 13 Sudeste 20 Este 0 -- -- 62
2021-02-17 14:00:00 17.8 14 Sudeste 21 Sudeste 0 -- -- 56
2021-02-17 13:00:00 17.2 11 Sudeste 18 Sudeste 0 -- -- 62
2021-02-17 12:00:00 15.3 6 Sudeste 12 Sudeste 0 -- -- 73
2021-02-17 11:00:00 12.7 5 Este 8 Sudeste 0 -- -- 80
2021-02-17 10:00:00 9.7 3 Sudeste 5 Sudeste 0 -- -- 97
2021-02-17 09:00:00 7.6 0 Calma 3 Noroeste 0 -- -- 100
2021-02-17 08:00:00 5 0 Calma 5 Norte 0 -- -- 100
2021-02-17 07:00:00 4.8 3 Noroeste 4 Noroeste 0 -- -- 99
2021-02-17 06:00:00 5 3 Noroeste 4 Noroeste 0 -- -- 98
2021-02-17 05:00:00 5.8 2 Sudeste 6 Noroeste 0 -- -- 97
2021-02-17 04:00:00 6.8 4 Noroeste 8 Noroeste 0 -- -- 98
2021-02-17 03:00:00 6.4 6 Noroeste 8 Noroeste 0 -- -- 99
2021-02-17 02:00:00 5.8 3 Oeste 8 Oeste 0 -- -- 96
2021-02-17 01:00:00 8.2 3 Norte 8 Noroeste 0 -- -- 95
2021-02-17 00:00:00 8.8 4 Noroeste 8 Noroeste 0 -- -- 96
2021-02-16 23:00:00 7.2 8 Noroeste 10 Noroeste 0 -- -- 98
2021-02-16 22:00:00 5.8 5 Noroeste 8 Noroeste 0 -- -- 97
2021-02-16 21:00:00 6.8 3 Noroeste 4 Sudoeste 0 -- -- 95
2021-02-16 20:00:00 8.1 0 Calma 10 Sudoeste 0 -- -- 86
2021-02-16 19:00:00 11.4 5 Sudoeste 19 Sudoeste 0 -- -- 82
2021-02-16 18:00:00 13.5 12 Sur 26 Sur 0 -- -- 75
2021-02-16 17:00:00 15.2 13 Sur 25 Sur 0 -- -- 69
2021-02-16 16:00:00 16 13 Sur 28 Sur 0 -- -- 64
2021-02-16 15:00:00 15.7 19 Sur 32 Sur 0 -- -- 64
2021-02-16 14:00:00 15.9 17 Sur 31 Sur 0 -- -- 64
2021-02-16 13:00:00 14.7 15 Sudoeste 31 Sudoeste 0 -- -- 66
2021-02-16 12:00:00 12.7 16 Sudoeste 28 Sudoeste 0 -- -- 72
2021-02-16 11:00:00 12.2 13 Sudoeste 22 Sudoeste 0 -- -- 76
2021-02-16 10:00:00 10.9 9 Sur 17 Sur 0 -- -- 86
2021-02-16 09:00:00 10.4 5 Sur 13 Sudoeste 0 -- -- 88
2021-02-16 08:00:00 10.3 8 Sur 14 Sur 0 -- -- 88
2021-02-16 07:00:00 10.1 9 Sur 19 Sudoeste 0 -- -- 89
2021-02-16 06:00:00 9.9 9 Sur 17 Sur 0 -- -- 89
2021-02-16 05:00:00 10 8 Sur 21 Sudoeste 0 -- -- 89
2021-02-16 04:00:00 10.1 13 Sudoeste 25 Sudoeste 0 -- -- 90
2021-02-16 03:00:00 9.9 9 Sudoeste 17 Sudoeste 0 -- -- 92
2021-02-16 02:00:00 9.5 9 Sudoeste 19 Sur 0 -- -- 95
2021-02-16 01:00:00 8.9 5 Sudeste 8 Sudeste 0 -- -- 95
2021-02-16 00:00:00 8.9 5 Sudeste 8 Sur 0 -- -- 95
2021-02-15 23:00:00 8.9 4 Sudeste 7 Sur 0 -- -- 94
2021-02-15 22:00:00 8.8 0 Calma 8 Sur 0 -- -- 94
2021-02-15 21:00:00 8.7 3 Sudoeste 8 Sudoeste 0 -- -- 94
2021-02-15 20:00:00 8.7 4 Sudoeste 8 Sudoeste 0 -- -- 94
2021-02-15 19:00:00 8.8 6 Sudoeste 10 Sudoeste 0 -- -- 92
2021-02-15 18:00:00 9.3 6 Sur 10 Sur 0 -- -- 88
2021-02-15 17:00:00 9.4 4 Sur 9 Sudeste 0 -- -- 86
2021-02-15 16:00:00 9.4 6 Sur 9 Sudeste 0 -- -- 85
2021-02-15 15:00:00 9.2 5 Sur 8 Sur 0 -- -- 85
2021-02-15 14:00:00 8.9 2 Sudoeste 12 Sur 0 -- -- 85
2021-02-15 13:00:00 8.7 4 Sudoeste 9 Sudoeste 0 -- -- 86
2021-02-15 12:00:00 8.3 0 Calma 3 Este 0 -- -- 86
2021-02-15 11:00:00 7.7 0 Calma 3 Sudeste 0 -- -- 90
2021-02-15 10:00:00 7.3 0 Calma 5 Noroeste 0 -- -- 93
2021-02-15 09:00:00 6.7 0 Calma 6 Noroeste 0 -- -- 96
2021-02-15 08:00:00 6.5 3 Noroeste 5 Oeste 0 -- -- 95
2021-02-15 07:00:00 6.4 3 Noroeste 6 Noroeste 0 -- -- 95
2021-02-15 06:00:00 6.4 3 Noroeste 7 Noroeste 0 -- -- 95
2021-02-15 05:00:00 6.3 0 Calma 4 Noroeste 0 -- -- 95
2021-02-15 04:00:00 6.2 3 Noroeste 8 Noroeste 0 -- -- 94
2021-02-15 03:00:00 6.2 6 Noroeste 10 Noroeste 0 -- -- 94
2021-02-15 02:00:00 6.1 8 Noroeste 12 Noroeste 0 -- -- 94
2021-02-15 01:00:00 6.2 8 Noroeste 11 Noroeste 0 -- -- 93
2021-02-15 00:00:00 6.3 5 Noroeste 7 Noroeste 0 -- -- 92
2021-02-14 23:00:00 6.3 4 Noroeste 9 Noroeste 0 -- -- 91
2021-02-14 22:00:00 6.4 6 Noroeste 11 Noroeste 0 -- -- 89
2021-02-14 21:00:00 6.5 5 Noroeste 9 Noroeste 0 -- -- 89
2021-02-14 20:00:00 6.4 5 Noroeste 9 Noroeste 0 -- -- 90
2021-02-14 19:00:00 6.5 4 Norte 13 Norte 0 -- -- 87
2021-02-14 18:00:00 6.7 4 Noroeste 9 Norte 0 -- -- 86
2021-02-14 17:00:00 6.8 4 Norte 14 Norte 0 -- -- 88
2021-02-14 16:00:00 7 7 Nordeste 18 Nordeste 0 -- -- 87
2021-02-14 15:00:00 7.1 8 Nordeste 20 Norte 0 -- -- 89
2021-02-14 14:00:00 7.3 6 Nordeste 16 Nordeste 0 -- -- 90
2021-02-14 13:00:00 7.5 7 Norte 18 Este 0.2 -- -- 92
2021-02-14 12:00:00 7.9 6 Nordeste 15 Norte 0 -- -- 92
2021-02-14 11:00:00 8 4 Nordeste 15 Este 0 -- -- 94
2021-02-14 10:00:00 8 4 Nordeste 13 Nordeste 0.2 -- -- 95
2021-02-14 09:00:00 7.8 3 Nordeste 10 Nordeste 0.2 -- -- 93
2021-02-14 08:00:00 7.8 5 Este 10 Este 0.4 -- -- 92
2021-02-14 07:00:00 7.9 6 Este 12 Este 0 -- -- 90
2021-02-14 06:00:00 7.7 2 Este 17 Este 0 -- -- 91
2021-02-14 05:00:00 7.7 8 Nordeste 20 Este 0.2 -- -- 93
2021-02-14 04:00:00 8.5 11 Norte 21 Nordeste 0.2 -- -- 94
2021-02-14 03:00:00 9.8 4 Este 18 Sudeste 0 -- -- 94
2021-02-14 02:00:00 10.5 9 Sudeste 19 Este 0 -- -- 93
2021-02-14 01:00:00 10.9 7 Sudeste 15 Sudeste 0 -- -- 92
2021-02-14 00:00:00 11.2 8 Sudeste 14 Este 0 -- -- 93
2021-02-13 23:00:00 11.3 4 Este 6 Este 0 -- -- 91
2021-02-13 22:00:00 11.4 2 Este 13 Este 0 -- -- 91
2021-02-13 21:00:00 11.6 7 Sudeste 13 Sudeste 0 -- -- 90
2021-02-13 20:00:00 11.8 6 Sudeste 13 Sudeste 0 -- -- 88
2021-02-13 19:00:00 11.9 8 Sudeste 17 Sudeste 0 -- -- 87
2021-02-13 18:00:00 12.5 7 Sudeste 14 Este 0 -- -- 83
2021-02-13 17:00:00 13.3 8 Sudeste 20 Este 0 -- -- 80
2021-02-13 16:00:00 14.1 14 Sudeste 24 Sudeste 0 -- -- 78
2021-02-13 15:00:00 16 15 Sudeste 27 Sudeste 0 -- -- 67
2021-02-13 14:00:00 16.8 12 Sudeste 20 Sudeste 0 -- -- 58
2021-02-13 13:00:00 15.9 10 Este 18 Sudeste 0 -- -- 62
2021-02-13 08:00:00 -- -- -- -- -- -- -- -- --
2021-02-13 07:00:00 5.8 4 Oeste 16 Oeste 0 -- -- 97
2021-02-13 06:00:00 6.5 6 Noroeste 13 Noroeste 0 -- -- 96
2021-02-13 05:00:00 7.9 3 Oeste 10 Noroeste 0 -- -- 97
2021-02-13 04:00:00 9.3 4 Noroeste 10 Noroeste 0 -- -- 99
2021-02-13 03:00:00 9.3 7 Oeste 9 Oeste 0 -- -- 99
2021-02-13 02:00:00 8.1 3 Oeste 6 Oeste 0 -- -- 98
2021-02-13 01:00:00 9.1 0 Calma 5 Este 0 -- -- 96
2021-02-13 00:00:00 10.6 0 Calma 5 Sur 0 -- -- 96
2021-02-12 23:00:00 11 3 Oeste 9 Sur 0 -- -- 95
2021-02-12 22:00:00 11 4 Sudeste 8 Este 0 -- -- 95
2021-02-12 21:00:00 11.3 4 Sudeste 16 Sudoeste 0 -- -- 94
2021-02-12 20:00:00 11.2 4 Oeste 9 Sudeste 0.2 -- -- 91
2021-02-12 19:00:00 12.4 3 Sudeste 21 Noroeste 0 -- -- 81
2021-02-12 18:00:00 14.2 10 Noroeste 23 Noroeste 0 -- -- 73
2021-02-12 17:00:00 15.3 18 Oeste 34 Oeste 0 -- -- 70
2021-02-12 16:00:00 16.4 7 Noroeste 18 Oeste 0 -- -- 66
2021-02-12 15:00:00 15.7 4 Norte 9 Este 0 -- -- 70
2021-02-12 14:00:00 14.6 8 Este 14 Sudeste 0 -- -- 72
2021-02-12 13:00:00 13.6 4 Sudeste 10 Sudeste 0 -- -- 76
2021-02-12 12:00:00 13.1 0 Calma 6 Sudeste 0 -- -- 78
2021-02-12 11:00:00 11.1 0 Calma 6 Sudeste 0 -- -- 87
2021-02-12 10:00:00 8.7 0 Calma 6 Noroeste 0 -- -- 96
2021-02-12 09:00:00 6.8 5 Noroeste 7 Noroeste 0 -- -- 98
2021-02-12 08:00:00 5.2 2 Sudoeste 7 Sudeste 0 -- -- 98
2021-02-12 07:00:00 4.9 6 Noroeste 9 Noroeste 0 -- -- 98
2021-02-12 06:00:00 4.3 0 Calma 7 Noroeste 0 -- -- 96
2021-02-12 05:00:00 4.6 2 Oeste 6 Noroeste 0 -- -- 95
2021-02-12 04:00:00 5.7 2 Nordeste 9 Noroeste 0 -- -- 94
2021-02-12 03:00:00 6.6 7 Noroeste 12 Noroeste 0 -- -- 93
2021-02-12 02:00:00 7.4 5 Oeste 12 Noroeste 0 -- -- 88
2021-02-12 01:00:00 7.2 5 Noroeste 10 Noroeste 0 -- -- 87
2021-02-12 00:00:00 8.2 6 Noroeste 14 Noroeste 0 -- -- 85
2021-02-11 23:00:00 8.3 7 Noroeste 14 Noroeste 0 -- -- 84
2021-02-11 22:00:00 8.7 10 Noroeste 14 Noroeste 0 -- -- 83
2021-02-11 21:00:00 8.6 8 Noroeste 12 Noroeste 0 -- -- 85
2021-02-11 20:00:00 8.4 5 Noroeste 10 Oeste 0 -- -- 84
2021-02-11 19:00:00 9.1 6 Noroeste 9 Noroeste 0 -- -- 85
2021-02-11 18:00:00 13.5 0 Calma 16 Sudeste 0 -- -- 69
2021-02-11 17:00:00 15.3 13 Sudeste 24 Sudeste 0 -- -- 60
2021-02-11 16:00:00 17.8 10 Sudoeste 23 Sur 0 -- -- 46
2021-02-11 15:00:00 17.3 13 Sur 19 Sudeste 0 -- -- 48
2021-02-11 14:00:00 16.7 6 Sudeste 19 Sur 0 -- -- 50
2021-02-11 13:00:00 15.3 7 Sudeste 18 Sudeste 0 -- -- 54
2021-02-11 12:00:00 13 11 Sudeste 18 Sudeste 0 -- -- 61
2021-02-11 11:00:00 10.4 4 Este 12 Sudeste 0 -- -- 71
2021-02-11 10:00:00 8.3 6 Este 10 Sudeste 0 -- -- 79
2021-02-11 09:00:00 4.9 2 Noroeste 15 Oeste 0 -- -- 91
2021-02-11 08:00:00 3.7 4 Este 19 Oeste 0 -- -- 88
2021-02-11 07:00:00 2.4 4 Este 19 Oeste 0 -- -- 91
2021-02-11 06:00:00 3.1 10 Noroeste 15 Noroeste 0 -- -- 91
2021-02-11 05:00:00 3.5 4 Norte 14 Noroeste 0 -- -- 92
2021-02-11 04:00:00 2.6 4 Noroeste 13 Sudoeste 0 -- -- 92
2021-02-11 03:00:00 5.4 5 Oeste 16 Oeste 0 -- -- 87
2021-02-11 02:00:00 4.1 8 Oeste 12 Oeste 0 -- -- 89
2021-02-11 01:00:00 4.4 6 Oeste 11 Oeste 0 -- -- 90
2021-02-11 00:00:00 3.8 4 Noroeste 10 Noroeste 0 -- -- 89
2021-02-10 23:00:00 5.8 5 Noroeste 13 Sudeste 0 -- -- 87
2021-02-10 22:00:00 6.9 4 Oeste 10 Este 0 -- -- 81
2021-02-10 21:00:00 6.9 2 Este 14 Oeste 0 -- -- 80
2021-02-10 20:00:00 9.6 9 Noroeste 23 Sudoeste 0 -- -- 72
2021-02-10 19:00:00 8 5 Oeste 10 Oeste 0 -- -- 79
2021-02-10 18:00:00 12.2 7 Oeste 19 Sudoeste 0 -- -- 67
2021-02-10 17:00:00 14.1 10 Sudoeste 27 Oeste 0 -- -- 59
2021-02-10 16:00:00 14.3 19 Oeste 31 Oeste 0 -- -- 58
2021-02-10 15:00:00 14.4 15 Oeste 29 Oeste 0 -- -- 57
2021-02-10 14:00:00 13.5 21 Oeste 36 Noroeste 0 -- -- 64
2021-02-10 13:00:00 11.4 21 Oeste 29 Oeste 0 -- -- 71
2021-02-10 12:00:00 10.6 11 Noroeste 19 Noroeste 0 -- -- 75
2021-02-10 11:00:00 9.9 11 Oeste 18 Oeste 0 -- -- 74
2021-02-10 10:00:00 8.3 4 Oeste 11 Oeste 0 -- -- 82
2021-02-10 09:00:00 6.7 3 Norte 10 Sudeste 0 -- -- 89
2021-02-10 08:00:00 5.8 5 Sudeste 15 Oeste 0 -- -- 89
2021-02-10 07:00:00 7.2 8 Oeste 22 Oeste 0 -- -- 81
2021-02-10 06:00:00 6.8 12 Sudoeste 21 Sudoeste 0 -- -- 83
2021-02-10 05:00:00 9 14 Sudoeste 28 Sudoeste 0 -- -- 72
2021-02-10 04:00:00 6.9 5 Oeste 15 Oeste 0 -- -- 84
2021-02-10 03:00:00 6.5 9 Sudoeste 18 Sudoeste 0 -- -- 85
2021-02-10 02:00:00 8 13 Oeste 20 Oeste 0 -- -- 82
2021-02-10 01:00:00 8.6 9 Sur 20 Sur 0 -- -- 80
2021-02-10 00:00:00 7.7 0 Calma 17 Sudoeste 0 -- -- 84
2021-02-09 23:00:00 7.4 3 Noroeste 9 Oeste 0 -- -- 93
2021-02-09 22:00:00 9.8 2 Sur 21 Sur 0 -- -- 87
2021-02-09 21:00:00 10.8 10 Sudoeste 22 Sudoeste 0 -- -- 87
2021-02-09 20:00:00 11.3 9 Sur 30 Sudoeste 0.2 -- -- 83
2021-02-09 19:00:00 11.4 11 Sudoeste 25 Sudoeste 0 -- -- 77
2021-02-09 18:00:00 11.7 13 Sudoeste 25 Sudoeste 0 -- -- 71
2021-02-09 17:00:00 12.4 9 Sur 21 Sur 0 -- -- 70
2021-02-09 16:00:00 12.9 9 Sudoeste 24 Sudoeste 0 -- -- 63
2021-02-09 15:00:00 13.6 7 Sudoeste 24 Sudoeste 0 -- -- 61
2021-02-09 14:00:00 13.7 17 Sudoeste 32 Sur 0 -- -- 61
2021-02-09 13:00:00 13.3 15 Sur 34 Sur 0 -- -- 60
2021-02-09 12:00:00 12.7 12 Sur 24 Sur 0 -- -- 68
2021-02-09 11:00:00 11.4 8 Sur 14 Sur 0 -- -- 75
2021-02-09 10:00:00 9.9 6 Sudoeste 23 Sudoeste 0 -- -- 76
2021-02-09 09:00:00 7.8 4 Este 13 Sur 0 -- -- 86
2021-02-09 08:00:00 6.7 11 Sudeste 14 Sudoeste 0 -- -- 85
2021-02-09 07:00:00 7.4 12 Oeste 23 Oeste 0 -- -- 82
2021-02-09 06:00:00 6.2 8 Sudeste 22 Oeste 0 -- -- 85
2021-02-09 05:00:00 8.8 14 Oeste 35 Oeste 0 -- -- 74
2021-02-09 04:00:00 8.2 12 Oeste 23 Oeste 0 -- -- 79
2021-02-09 03:00:00 4.6 3 Norte 7 Oeste 0 -- -- 93
2021-02-09 02:00:00 4.6 2 Este 9 Sudoeste 0 -- -- 93
2021-02-09 01:00:00 5.1 3 Sudoeste 12 Noroeste 0 -- -- 93
2021-02-09 00:00:00 3.4 3 Sudoeste 8 Noroeste 0 -- -- 97
2021-02-08 23:00:00 3.5 4 Noroeste 8 Noroeste 0 -- -- 96
2021-02-08 22:00:00 4.4 3 Noroeste 14 Noroeste 0 -- -- 94
2021-02-08 21:00:00 6 9 Noroeste 15 Noroeste 0 -- -- 95
2021-02-08 20:00:00 5.1 4 Oeste 10 Noroeste 0 -- -- 92
2021-02-08 19:00:00 6.7 2 Sudoeste 18 Oeste 0 -- -- 88
2021-02-08 18:00:00 9.7 8 Oeste 17 Sudoeste 0 -- -- 80
2021-02-08 17:00:00 10.7 3 Este 9 Sudeste 0 -- -- 89
2021-02-08 16:00:00 9.5 5 Este 24 Sudoeste 0.4 -- -- 92
2021-02-08 15:00:00 9.6 9 Sur 19 Sudoeste 0.6 -- -- 86
2021-02-08 14:00:00 10.5 11 Sudoeste 28 Sudoeste 0.2 -- -- 80
2021-02-08 13:00:00 11.5 17 Sudoeste 36 Sudoeste 0 -- -- 72
2021-02-08 12:00:00 12.5 12 Sudoeste 35 Oeste 0 -- -- 65
2021-02-08 11:00:00 11.6 4 Norte 10 Este 0 -- -- 70
2021-02-08 10:00:00 8.7 6 Este 20 Sur 0 -- -- 80
2021-02-08 09:00:00 4.9 4 Sudeste 6 Este 0 -- -- 92
2021-02-08 08:00:00 4.2 3 Norte 8 Este 0 -- -- 91
2021-02-08 07:00:00 3.4 2 Oeste 8 Norte 0 -- -- 91
2021-02-08 06:00:00 3.9 3 Noroeste 10 Oeste 0 -- -- 89
2021-02-08 05:00:00 5.1 4 Norte 9 Noroeste 0 -- -- 86
2021-02-08 04:00:00 5.5 4 Norte 10 Sudoeste 0 -- -- 85
2021-02-08 03:00:00 4.9 5 Noroeste 11 Noroeste 0 -- -- 91
2021-02-08 02:00:00 4.7 5 Noroeste 13 Sudoeste 0 -- -- 92
2021-02-08 01:00:00 4.8 5 Noroeste 11 Oeste 0 -- -- 95
2021-02-08 00:00:00 5 5 Noroeste 7 Noroeste 0 -- -- 96
2021-02-07 23:00:00 5.9 3 Noroeste 6 Oeste 0 -- -- 97
2021-02-07 22:00:00 5.7 3 Oeste 6 Noroeste 0 -- -- 96
2021-02-07 21:00:00 5.7 0 Calma 5 Noroeste 0 -- -- 95
2021-02-07 20:00:00 7 2 Noroeste 4 Norte 0 -- -- 93
2021-02-07 19:00:00 8.5 0 Calma 8 Nordeste 0 -- -- 87
2021-02-07 18:00:00 9.3 3 Este 14 Sudeste 0 -- -- 80
2021-02-07 17:00:00 10.2 8 Este 14 Este 0 -- -- 75
2021-02-07 16:00:00 11.1 6 Oeste 18 Oeste 0 -- -- 67
2021-02-07 15:00:00 9.5 14 Oeste 26 Oeste 0 -- -- 75
2021-02-07 14:00:00 9.6 6 Noroeste 11 Noroeste 0 -- -- 78
2021-02-07 13:00:00 10.1 4 Este 10 Este 0 -- -- 81
2021-02-07 12:00:00 9.7 3 Sudeste 9 Sudeste 0 -- -- 83
2021-02-07 11:00:00 8.8 7 Este 12 Este 0 -- -- 91
2021-02-07 10:00:00 8.5 3 Este 9 Este 0.2 -- -- 91
2021-02-07 09:00:00 8.6 6 Oeste 11 Oeste 0 -- -- 85
2021-02-07 08:00:00 8.7 4 Sudoeste 8 Este 0 -- -- 89
2021-02-07 07:00:00 9.3 8 Noroeste 15 Noroeste 0 -- -- 83
2021-02-07 06:00:00 9.6 2 Sudeste 9 Sudoeste 0 -- -- 92
2021-02-07 05:00:00 9.8 6 Este 12 Sudeste 0 -- -- 90
2021-02-07 04:00:00 10.2 8 Noroeste 15 Noroeste 0 -- -- 85
2021-02-07 03:00:00 10.7 6 Norte 19 Noroeste 0 -- -- 80
2021-02-07 02:00:00 10.3 5 Este 12 Este 0 -- -- 84
2021-02-07 01:00:00 11 6 Sudeste 19 Oeste 0 -- -- 78
2021-02-07 00:00:00 9.3 4 Oeste 22 Oeste 0 -- -- 84
2021-02-06 23:00:00 8.4 6 Noroeste 12 Oeste 0 -- -- 86
2021-02-06 22:00:00 8.9 8 Noroeste 13 Noroeste 0 -- -- 87
2021-02-06 21:00:00 9.9 5 Noroeste 10 Noroeste 0 -- -- 88
2021-02-06 20:00:00 11.4 5 Sudeste 10 Sudoeste 0 -- -- 83
2021-02-06 19:00:00 13.8 6 Sur 18 Sudoeste 0 -- -- 75
2021-02-06 18:00:00 15 11 Sudoeste 23 Sudoeste 0 -- -- 73
2021-02-06 17:00:00 16.6 13 Sudoeste 24 Sudoeste 0 -- -- 71
2021-02-06 16:00:00 16.6 12 Sudeste 18 Sudeste 0 -- -- 76
2021-02-06 15:00:00 18 7 Sudeste 12 Sudeste 0 -- -- 69
2021-02-06 14:00:00 17.1 5 Sudeste 13 Sudeste 0 -- -- 71
2021-02-06 13:00:00 16.5 10 Sudeste 18 Sudeste 0 -- -- 73
2021-02-06 12:00:00 16 8 Sur 13 Sudeste 0 -- -- 75
2021-02-06 11:00:00 14.6 3 Norte 8 Noroeste 0 -- -- 80
2021-02-06 10:00:00 13 3 Norte 13 Norte 0 -- -- 86
2021-02-06 09:00:00 12.2 6 Norte 21 Norte 0 -- -- 89
2021-02-06 08:00:00 12.1 6 Noroeste 14 Norte 0 -- -- 85
2021-02-06 07:00:00 12.5 5 Oeste 21 Norte 0 -- -- 78
2021-02-06 06:00:00 12.8 5 Noroeste 16 Noroeste 0 -- -- 75
2021-02-06 05:00:00 12.4 7 Noroeste 19 Norte 0 -- -- 75
2021-02-06 04:00:00 12 5 Oeste 12 Oeste 0 -- -- 78
2021-02-06 03:00:00 12 5 Norte 12 Nordeste 0 -- -- 79
2021-02-06 02:00:00 11 4 Noroeste 10 Noroeste 0 -- -- 84
2021-02-06 01:00:00 9.5 2 Noroeste 6 Noroeste 0 -- -- 90
2021-02-06 00:00:00 10.5 9 Noroeste 14 Noroeste 0 -- -- 82
2021-02-05 23:00:00 9.8 10 Noroeste 15 Oeste 0 -- -- 91
2021-02-05 22:00:00 9.2 6 Noroeste 8 Norte 0 -- -- 93
2021-02-05 21:00:00 9.4 4 Oeste 12 Noroeste 0 -- -- 90
2021-02-05 20:00:00 10.4 5 Noroeste 8 Noroeste 0 -- -- 89
2021-02-05 19:00:00 12.3 6 Noroeste 12 Noroeste 0 -- -- 84
2021-02-05 18:00:00 14.4 4 Norte 13 Nordeste 0 -- -- 74
2021-02-05 17:00:00 16.1 5 Norte 13 Norte 0 -- -- 68
2021-02-05 16:00:00 17.4 5 Nordeste 12 Nordeste 0 -- -- 60
2021-02-05 15:00:00 17.4 6 Nordeste 16 Norte 0 -- -- 55
2021-02-05 14:00:00 17.2 6 Norte 18 Norte 0 -- -- 60
2021-02-05 13:00:00 16.6 7 Nordeste 18 Norte 0 -- -- 61
2021-02-05 12:00:00 14.7 5 Norte 14 Norte 0 -- -- 74
2021-02-05 11:00:00 13 5 Norte 13 Nordeste 0 -- -- 78
2021-02-05 10:00:00 11.3 3 Oeste 13 Sudeste 0 -- -- 88
2021-02-05 09:00:00 9.7 0 Calma 18 Noroeste 0 -- -- 93
2021-02-05 08:00:00 9.5 9 Noroeste 15 Noroeste 0 -- -- 95
2021-02-05 07:00:00 9.3 5 Noroeste 10 Oeste 0 -- -- 95
2021-02-05 06:00:00 9 7 Noroeste 10 Noroeste 0 -- -- 95
2021-02-05 05:00:00 9 6 Noroeste 14 Noroeste 0 -- -- 95
2021-02-05 04:00:00 9.3 5 Norte 11 Norte 0 -- -- 97
2021-02-05 03:00:00 9.3 5 Noroeste 10 Noroeste 0 -- -- 97
2021-02-05 02:00:00 9.4 7 Noroeste 11 Noroeste 0 -- -- 97
2021-02-05 01:00:00 9.7 7 Oeste 12 Oeste 0 -- -- 96
2021-02-05 00:00:00 10.1 4 Oeste 8 Sur 0 -- -- 96
2021-02-04 23:00:00 10.3 3 Sur 6 Sudoeste 0 -- -- 97
2021-02-04 22:00:00 10.5 3 Sudeste 5 Sudeste 0 -- -- 97
2021-02-04 21:00:00 10.5 3 Sur 7 Sudeste 0 -- -- 98
2021-02-04 20:00:00 10.5 4 Sudeste 13 Sur 0 -- -- 97
2021-02-04 19:00:00 10.8 9 Sur 13 Sur 0 -- -- 95
2021-02-04 18:00:00 12 5 Sudeste 10 Sudeste 0 -- -- 89
2021-02-04 17:00:00 14.3 9 Sudeste 17 Sudeste 0 -- -- 79
2021-02-04 16:00:00 16.5 10 Sudeste 17 Sudeste 0 -- -- 72
2021-02-04 15:00:00 17.9 6 Sudeste 14 Este 0 -- -- 63
2021-02-04 14:00:00 18.2 6 Sudeste 11 Sudeste 0 -- -- 61
2021-02-04 13:00:00 17 4 Sudeste 10 Sudeste 0 -- -- 67
2021-02-04 12:00:00 14.8 5 Este 9 Sudeste 0 -- -- 75
2021-02-04 11:00:00 12.2 5 Sur 8 Este 0 -- -- 80
2021-02-04 10:00:00 11.4 4 Sudeste 14 Sudeste 0 -- -- 83
2021-02-04 09:00:00 7.1 0 Calma 5 Norte 0 -- -- 98
2021-02-04 08:00:00 6 0 Calma 6 Noroeste 0 -- -- 96
2021-02-04 07:00:00 6.3 0 Calma 7 Noroeste 0 -- -- 93
2021-02-04 06:00:00 7.1 6 Noroeste 10 Noroeste 0 -- -- 93
2021-02-04 05:00:00 8.2 9 Noroeste 15 Noroeste 0 -- -- 91
2021-02-04 04:00:00 8 7 Noroeste 15 Noroeste 0 -- -- 90
2021-02-04 03:00:00 8.7 6 Oeste 12 Noroeste 0 -- -- 86
2021-02-04 02:00:00 9.7 10 Noroeste 14 Noroeste 0 -- -- 85
2021-02-04 01:00:00 9.7 9 Noroeste 13 Noroeste 0 -- -- 86
2021-02-04 00:00:00 10.2 4 Noroeste 10 Noroeste 0 -- -- 83
2021-02-03 23:00:00 10.8 4 Noroeste 9 Noroeste 0 -- -- 81
2021-02-03 22:00:00 11.1 3 Noroeste 10 Noroeste 0 -- -- 81
2021-02-03 21:00:00 12.7 4 Norte 10 Noroeste 0 -- -- 79
2021-02-03 20:00:00 13.4 2 Sudeste 9 Sudeste 0 -- -- 71
2021-02-03 19:00:00 14.1 8 Noroeste 14 Noroeste 0 -- -- 71
2021-02-03 18:00:00 15.2 3 Oeste 18 Sudoeste 0 -- -- 66
2021-02-03 17:00:00 18.2 15 Sudoeste 27 Sudoeste 0 -- -- 53
2021-02-03 16:00:00 19.6 14 Sur 23 Sudoeste 0 -- -- 49
2021-02-03 15:00:00 20.6 16 Sudoeste 25 Sudoeste 0 -- -- 48
2021-02-03 14:00:00 21.5 12 Sudoeste 22 Sudoeste 0 -- -- 46
2021-02-03 13:00:00 20.2 11 Sur 23 Sudoeste 0 -- -- 51
2021-02-03 12:00:00 18.1 16 Sudoeste 30 Sudoeste 0 -- -- 56
2021-02-03 11:00:00 17 17 Sudoeste 27 Sudoeste 0 -- -- 58
2021-02-03 10:00:00 14.3 12 Sudoeste 24 Sudoeste 0 -- -- 70
2021-02-03 09:00:00 9.4 5 Sudeste 17 Sur 0 -- -- 86
2021-02-03 08:00:00 10.9 8 Sudoeste 17 Sudoeste 0 -- -- 75
2021-02-03 07:00:00 7.5 6 Sudeste 14 Sudeste 0 -- -- 93
2021-02-03 06:00:00 6.6 5 Sudeste 12 Sudeste 0 -- -- 97
2021-02-03 05:00:00 5.7 4 Noroeste 11 Noroeste 0 -- -- 97
2021-02-03 04:00:00 5.6 4 Noroeste 10 Noroeste 0 -- -- 96
2021-02-03 03:00:00 6.2 2 Sur 6 Noroeste 0 -- -- 96
2021-02-03 02:00:00 7.4 5 Noroeste 11 Noroeste 0 -- -- 91
2021-02-03 01:00:00 8.2 6 Noroeste 12 Noroeste 0 -- -- 90
2021-02-03 00:00:00 9.1 10 Noroeste 14 Noroeste 0 -- -- 90
2021-02-02 23:00:00 9.2 8 Noroeste 11 Noroeste 0 -- -- 89
2021-02-02 22:00:00 9.8 9 Oeste 12 Noroeste 0 -- -- 87
2021-02-02 21:00:00 11 7 Noroeste 13 Noroeste 0 -- -- 83
2021-02-02 20:00:00 11.5 9 Noroeste 12 Noroeste 0 -- -- 82
2021-02-02 19:00:00 12 8 Noroeste 12 Sudoeste 0 -- -- 80
2021-02-02 18:00:00 16.7 6 Sudoeste 18 Sudoeste 0 -- -- 61
2021-02-02 17:00:00 19.1 10 Oeste 21 Sudoeste 0 -- -- 56
2021-02-02 16:00:00 20 12 Sudoeste 22 Oeste 0 -- -- 51
2021-02-02 15:00:00 19.9 9 Oeste 21 Sudoeste 0 -- -- 52
2021-02-02 14:00:00 20.1 4 Este 15 Sudeste 0 -- -- 55
2021-02-02 13:00:00 18.8 5 Sur 16 Sudoeste 0 -- -- 58
2021-02-02 12:00:00 17 5 Nordeste 26 Oeste 0 -- -- 63
2021-02-02 11:00:00 15.5 7 Este 15 Sudeste 0 -- -- 69
2021-02-02 10:00:00 11.9 7 Sudeste 14 Sudeste 0 -- -- 79
2021-02-02 09:00:00 7 5 Sudeste 10 Este 0 -- -- 93
2021-02-02 08:00:00 6 6 Noroeste 13 Noroeste 0 -- -- 93
2021-02-02 07:00:00 6.4 6 Sudeste 10 Sudeste 0 -- -- 92
2021-02-02 06:00:00 6.3 4 Noroeste 14 Sur 0 -- -- 92
2021-02-02 05:00:00 7.1 3 Este 11 Oeste 0 -- -- 91
2021-02-02 04:00:00 6.8 6 Oeste 9 Oeste 0 -- -- 91
2021-02-02 03:00:00 7.1 7 Noroeste 13 Noroeste 0 -- -- 90
2021-02-02 02:00:00 7.6 5 Sudoeste 13 Sudoeste 0 -- -- 90
2021-02-02 01:00:00 8.4 6 Noroeste 12 Oeste 0 -- -- 87
2021-02-02 00:00:00 8.1 9 Oeste 16 Noroeste 0 -- -- 88
2021-02-01 23:00:00 7.9 6 Noroeste 10 Oeste 0 -- -- 87
2021-02-01 22:00:00 9.9 2 Oeste 13 Sudoeste 0 -- -- 76
2021-02-01 21:00:00 11.4 0 Calma 21 Oeste 0 -- -- 73
2021-02-01 20:00:00 12.8 12 Oeste 17 Sudoeste 0 -- -- 68
2021-02-01 19:00:00 14.3 3 Sur 21 Sudoeste 0 -- -- 60
2021-02-01 18:00:00 16.7 10 Sur 34 Noroeste 0 -- -- 50
2021-02-01 17:00:00 18.1 20 Oeste 38 Oeste 0 -- -- 46
2021-02-01 16:00:00 18.9 11 Oeste 43 Oeste 0 -- -- 46
2021-02-01 15:00:00 18.5 21 Oeste 55 Oeste 0 -- -- 46
2021-02-01 14:00:00 17.9 27 Oeste 50 Oeste 0 -- -- 49
2021-02-01 13:00:00 16.8 23 Oeste 42 Oeste 0 -- -- 54
2021-02-01 12:00:00 15.7 22 Oeste 39 Sudoeste 0 -- -- 58
2021-02-01 11:00:00 14.7 15 Oeste 30 Oeste 0 -- -- 62
2021-02-01 10:00:00 13.7 4 Este 19 Sur 0 -- -- 67
2021-02-01 09:00:00 10.6 6 Noroeste 17 Oeste 0 -- -- 76
2021-02-01 08:00:00 7.9 5 Norte 12 Sudoeste 0 -- -- 83
2021-02-01 07:00:00 9.9 7 Oeste 27 Oeste 0 -- -- 79
2021-02-01 06:00:00 10.8 13 Oeste 33 Oeste 0 -- -- 77
2021-02-01 05:00:00 11 14 Oeste 21 Oeste 0 -- -- 79
2021-02-01 04:00:00 10.3 5 Sudeste 23 Sudoeste 0 -- -- 85
2021-02-01 03:00:00 9.6 4 Sudeste 24 Oeste 0 -- -- 88
2021-02-01 02:00:00 10.9 9 Oeste 27 Oeste 1 -- -- 84
2021-02-01 01:00:00 9.2 4 Este 11 Sudoeste 0 -- -- 82
2021-02-01 00:00:00 10.7 5 Sudoeste 26 Oeste 0 -- -- 74
2021-01-31 23:00:00 13.2 13 Oeste 33 Oeste 0 -- -- 67
2021-01-31 22:00:00 13.1 12 Oeste 27 Noroeste 0 -- -- 68
2021-01-31 21:00:00 13.6 7 Sur 31 Oeste 0 -- -- 66
2021-01-31 20:00:00 13.7 11 Oeste 26 Oeste 0 -- -- 66
2021-01-31 19:00:00 14.1 17 Oeste 27 Oeste 0 -- -- 64
2021-01-31 18:00:00 14.6 5 Sudoeste 16 Sudoeste 0 -- -- 59
2021-01-31 17:00:00 15.3 6 Oeste 22 Oeste 0 -- -- 58
2021-01-31 16:00:00 16.2 17 Oeste 27 Oeste 0 -- -- 54
2021-01-31 15:00:00 16.6 3 Sudeste 20 Oeste 0 -- -- 51
2021-01-31 14:00:00 15.9 5 Sudoeste 31 Oeste 0 -- -- 55
2021-01-31 13:00:00 13.3 22 Oeste 33 Oeste 0 -- -- 62
2021-01-31 12:00:00 13.6 15 Oeste 29 Oeste 0 -- -- 59
2021-01-31 11:00:00 12.4 12 Oeste 38 Sudoeste 0 -- -- 63
2021-01-31 10:00:00 11.1 11 Sudoeste 33 Oeste 0 -- -- 65
2021-01-31 09:00:00 9.6 13 Noroeste 44 Oeste 0 -- -- 68
2021-01-31 08:00:00 9.1 23 Oeste 41 Oeste 0 -- -- 70
2021-01-31 07:00:00 9.2 22 Oeste 49 Oeste 0 -- -- 69
2021-01-31 06:00:00 9.7 27 Oeste 48 Sudoeste 0 -- -- 67
2021-01-31 05:00:00 10 29 Oeste 50 Oeste 0 -- -- 66
2021-01-31 04:00:00 10 18 Oeste 42 Oeste 0 -- -- 65
2021-01-31 03:00:00 10.4 16 Oeste 41 Oeste 0 -- -- 61
2021-01-31 02:00:00 7 6 Sudeste 18 Sur 0 -- -- 87
2021-01-31 01:00:00 7 8 Sudoeste 18 Sudoeste 0 -- -- 88
2021-01-31 00:00:00 6.7 3 Oeste 12 Sudoeste 0 -- -- 93
2021-01-30 23:00:00 8 4 Sudeste 13 Oeste 0 -- -- 87
2021-01-30 22:00:00 9.8 6 Norte 16 Noroeste 0 -- -- 83
2021-01-30 21:00:00 11 5 Nordeste 12 Nordeste 0 -- -- 78
2021-01-30 20:00:00 12.8 7 Sur 15 Oeste 0 -- -- 64
2021-01-30 19:00:00 13.1 8 Oeste 31 Oeste 0 -- -- 61
2021-01-30 18:00:00 13.1 5 Sudoeste 20 Oeste 0 -- -- 70
2021-01-30 17:00:00 12.5 11 Oeste 64 Oeste 0.2 -- -- 82
2021-01-30 16:00:00 17.2 26 Oeste 45 Sudoeste 0 -- -- 49
2021-01-30 15:00:00 16.2 11 Sudoeste 44 Oeste 0 -- -- 56
2021-01-30 14:00:00 16.9 25 Oeste 54 Oeste 0 -- -- 52
2021-01-30 13:00:00 17.4 15 Sudoeste 38 Oeste 0 -- -- 54
2021-01-30 12:00:00 15.4 18 Sudoeste 30 Sudoeste 0 -- -- 64
2021-01-30 11:00:00 15 7 Sudoeste 33 Oeste 0 -- -- 68
2021-01-30 10:00:00 15.1 11 Sudoeste 50 Sudoeste 0 -- -- 70
2021-01-30 09:00:00 13.5 18 Sudoeste 33 Sudoeste 0 -- -- 76
2021-01-30 08:00:00 8 6 Sudeste 15 Sudeste 0 -- -- 99
2021-01-30 07:00:00 7 4 Oeste 7 Oeste 0 -- -- 99
2021-01-30 06:00:00 6.4 0 Calma 12 Oeste 0 -- -- 97
2021-01-30 05:00:00 7.6 3 Este 13 Noroeste 0 -- -- 96
2021-01-30 04:00:00 7.6 9 Noroeste 13 Noroeste 0 -- -- 96
2021-01-30 03:00:00 8.2 6 Noroeste 15 Noroeste 0 -- -- 96
2021-01-30 02:00:00 9 9 Sudeste 15 Sudeste 0 -- -- 92
2021-01-30 01:00:00 9.8 6 Noroeste 15 Noroeste 0 -- -- 91
2021-01-30 00:00:00 9.9 9 Oeste 13 Oeste 0 -- -- 91
2021-01-29 23:00:00 9.8 9 Noroeste 13 Noroeste 0 -- -- 92
2021-01-29 22:00:00 10 5 Noroeste 10 Noroeste 0 -- -- 91
2021-01-29 21:00:00 11.3 0 Calma 12 Noroeste 0 -- -- 85
2021-01-29 20:00:00 13.5 4 Noroeste 11 Noroeste 0 -- -- 81
2021-01-29 19:00:00 15.9 5 Norte 16 Nordeste 0 -- -- 73
2021-01-29 18:00:00 17.7 5 Oeste 24 Sudoeste 0 -- -- 61
2021-01-29 17:00:00 20.1 10 Sudoeste 21 Sudoeste 0 -- -- 56
2021-01-29 16:00:00 20.5 9 Oeste 24 Sudoeste 0 -- -- 58
2021-01-29 15:00:00 20.3 6 Noroeste 24 Sur 0 -- -- 58
2021-01-29 14:00:00 20.2 16 Sudoeste 29 Sudoeste 0 -- -- 57
2021-01-29 13:00:00 19.1 16 Sudoeste 31 Sudoeste 0 -- -- 60
2021-01-29 12:00:00 18.3 8 Sur 23 Sudoeste 0 -- -- 65
2021-01-29 11:00:00 16.8 13 Sudoeste 23 Sudoeste 0 -- -- 73
2021-01-29 10:00:00 14.7 4 Sudoeste 13 Sudoeste 0 -- -- 81
2021-01-29 09:00:00 12.8 6 Sudoeste 8 Sudoeste 0 -- -- 84
2021-01-29 08:00:00 13.5 3 Sudoeste 19 Noroeste 0 -- -- 77
2021-01-29 07:00:00 16 11 Oeste 35 Oeste 0 -- -- 70
2021-01-29 06:00:00 14.7 6 Sur 31 Sur 0 -- -- 75
2021-01-29 05:00:00 16.3 22 Oeste 46 Oeste 0 -- -- 71
2021-01-29 04:00:00 12.4 7 Sudoeste 15 Oeste 0 -- -- 94
2021-01-29 03:00:00 8 3 Noroeste 9 Sudeste 0 -- -- 100
2021-01-29 02:00:00 8.2 4 Sudeste 10 Sudeste 0 -- -- 99
2021-01-29 01:00:00 7.2 4 Noroeste 6 Noroeste 0 -- -- 98
2021-01-29 00:00:00 7.3 4 Noroeste 6 Noroeste 0 -- -- 96
2021-01-28 23:00:00 9.1 3 Oeste 10 Noroeste 0 -- -- 94
2021-01-28 22:00:00 9.6 8 Noroeste 10 Noroeste 0 -- -- 97
2021-01-28 21:00:00 9.8 3 Nordeste 10 Noroeste 0 -- -- 93
2021-01-28 20:00:00 9.9 8 Noroeste 10 Noroeste 0 -- -- 94
2021-01-28 19:00:00 11.3 4 Oeste 9 Noroeste 0 -- -- 91
2021-01-28 18:00:00 13.4 5 Noroeste 6 Noroeste 0 -- -- 83
2021-01-28 17:00:00 17.2 4 Sudoeste 7 Sudeste 0 -- -- 75
2021-01-28 16:00:00 18.1 8 Sudeste 9 Sudeste 0 -- -- 70
2021-01-28 15:00:00 19.4 3 Este 8 Sudeste 0 -- -- 63
2021-01-28 14:00:00 19.7 0 Calma 12 Sudeste 0 -- -- 61
2021-01-28 13:00:00 18.4 8 Sudeste 15 Sudeste 0 -- -- 65
2021-01-28 12:00:00 17.6 3 Oeste 22 Noroeste 0 -- -- 69
2021-01-28 11:00:00 15.6 13 Oeste 29 Oeste 0 -- -- 75
2021-01-28 10:00:00 14.1 17 Oeste 32 Oeste 0 -- -- 80
2021-01-28 09:00:00 10.9 7 Noroeste 13 Oeste 0 -- -- 91
2021-01-28 08:00:00 9.9 3 Nordeste 19 Sudeste 0 -- -- 92
2021-01-28 07:00:00 7 3 Este 10 Sudoeste 0 -- -- 98
2021-01-28 06:00:00 5.8 4 Oeste 10 Sudeste 0 -- -- 96
2021-01-28 05:00:00 6.1 2 Este 15 Sudoeste 0 -- -- 97
2021-01-28 04:00:00 6.1 4 Nordeste 14 Sudoeste 0 -- -- 96
2021-01-28 03:00:00 6.1 3 Este 9 Oeste 0 -- -- 95
2021-01-28 02:00:00 6.9 3 Este 13 Noroeste 0 -- -- 93
2021-01-28 01:00:00 7.3 7 Noroeste 11 Noroeste 0 -- -- 93
2021-01-28 00:00:00 6.7 6 Noroeste 8 Noroeste 0 -- -- 95
2021-01-27 23:00:00 8.3 3 Noroeste 9 Noroeste 0 -- -- 92
2021-01-27 22:00:00 8.7 6 Noroeste 9 Noroeste 0 -- -- 89
2021-01-27 21:00:00 8.7 2 Noroeste 10 Noroeste 0 -- -- 87
2021-01-27 20:00:00 10 8 Noroeste 11 Noroeste 0 -- -- 88
2021-01-27 19:00:00 9.7 4 Noroeste 5 Noroeste 0 -- -- 84
2021-01-27 18:00:00 14.2 4 Sudeste 9 Sudeste 0 -- -- 67
2021-01-27 17:00:00 16.8 5 Sudeste 10 Sudeste 0 -- -- 60
2021-01-27 16:00:00 18.8 2 Sudoeste 8 Sudeste 0 -- -- 55
2021-01-27 15:00:00 18.6 4 Este 9 Sudeste 0 -- -- 53
2021-01-27 14:00:00 16.4 2 Sudeste 8 Este 0 -- -- 58
2021-01-27 13:00:00 14.6 4 Sudeste 12 Este 0 -- -- 60
2021-01-27 12:00:00 12.6 8 Sudeste 10 Este 0 -- -- 64
2021-01-27 11:00:00 9.8 5 Este 9 Sudeste 0 -- -- 71
2021-01-27 10:00:00 6.1 5 Noroeste 8 Noroeste 0 -- -- 84
2021-01-27 09:00:00 2.3 4 Nordeste 8 Norte 0 -- -- 96
2021-01-27 08:00:00 1.7 5 Oeste 8 Sur 0 -- -- 94
2021-01-27 07:00:00 3.1 2 Sudeste 8 Noroeste 0 -- -- 93
2021-01-27 06:00:00 3.7 7 Noroeste 10 Noroeste 0 -- -- 92
2021-01-27 05:00:00 3.5 0 Calma 6 Sudoeste 0 -- -- 90
2021-01-27 04:00:00 3.5 0 Calma 6 Noroeste 0 -- -- 91
2021-01-27 03:00:00 3.6 3 Sudoeste 9 Norte 0 -- -- 87
2021-01-27 02:00:00 3.3 5 Noroeste 12 Oeste 0 -- -- 86
2021-01-27 01:00:00 3 5 Oeste 7 Noroeste 0 -- -- 87
2021-01-27 00:00:00 4.8 7 Oeste 15 Oeste 0 -- -- 79
2021-01-26 23:00:00 4.6 5 Noroeste 13 Oeste 0 -- -- 80
2021-01-26 22:00:00 4.6 6 Oeste 13 Noroeste 0 -- -- 81
2021-01-26 21:00:00 5.3 9 Noroeste 13 Oeste 0 -- -- 84
2021-01-26 20:00:00 6.3 10 Oeste 13 Oeste 0 -- -- 88
2021-01-26 19:00:00 7.6 8 Noroeste 14 Oeste 0 -- -- 87
2021-01-26 18:00:00 10.4 0 Calma 13 Sudeste 0 -- -- 77
2021-01-26 17:00:00 11.9 9 Sudeste 19 Este 0 -- -- 71
2021-01-26 16:00:00 12.5 14 Sudeste 23 Sudoeste 0 -- -- 67
2021-01-26 15:00:00 13.1 13 Sur 27 Sudoeste 0 -- -- 47
2021-01-26 14:00:00 12.4 7 Sudeste 22 Este 0 -- -- 61
2021-01-26 13:00:00 11.3 10 Este 19 Sudeste 0 -- -- 64
2021-01-26 12:00:00 9.6 3 Noroeste 6 Norte 0 -- -- 73
2021-01-26 11:00:00 7.4 2 Nordeste 11 Norte 0 -- -- 77
2021-01-26 10:00:00 6.6 3 Norte 6 Noroeste 0 -- -- 81
2021-01-26 09:00:00 6.3 2 Nordeste 6 Nordeste 0 -- -- 86
2021-01-26 08:00:00 5.8 0 Calma 4 Sudoeste 0 -- -- 91
2021-01-26 07:00:00 6.4 0 Calma 4 Sur 0 -- -- 87
2021-01-26 06:00:00 6.8 2 Nordeste 7 Este 0 -- -- 82
2021-01-26 05:00:00 7 3 Este 9 Noroeste 0 -- -- 80
2021-01-26 04:00:00 7.1 3 Noroeste 5 Noroeste 0 -- -- 82
2021-01-26 03:00:00 7.3 3 Este 6 Este 0 -- -- 78
2021-01-26 02:00:00 7.4 2 Noroeste 4 Nordeste 0 -- -- 80
2021-01-26 01:00:00 7.5 0 Calma 4 Sudoeste 0 -- -- 82
2021-01-26 00:00:00 7.7 0 Calma 5 Noroeste 0 -- -- 78
2021-01-25 23:00:00 8 3 Norte 8 Nordeste 0 -- -- 75
2021-01-25 22:00:00 8.3 4 Norte 10 Norte 0 -- -- 76
2021-01-25 21:00:00 8.6 6 Noroeste 15 Nordeste 0 -- -- 76
2021-01-25 20:00:00 9.8 5 Nordeste 10 Este 0 -- -- 73
2021-01-25 19:00:00 9.9 0 Calma 4 Sudoeste 0 -- -- 82
2021-01-25 18:00:00 10.6 0 Calma 13 Sudeste 0 -- -- 78
2021-01-25 17:00:00 11.2 4 Nordeste 21 Este 0 -- -- 67
2021-01-25 16:00:00 13 10 Norte 21 Norte 0 -- -- 62
2021-01-25 15:00:00 14.1 5 Sudoeste 19 Oeste 0 -- -- 61
2021-01-25 14:00:00 14 9 Sudoeste 21 Sudoeste 0 -- -- 63
2021-01-25 13:00:00 12.1 14 Sudoeste 25 Sudoeste 0 -- -- 70
2021-01-25 12:00:00 12.1 14 Sudoeste 22 Sur 0 -- -- 69
2021-01-25 11:00:00 11.2 10 Sudoeste 20 Sudoeste 0 -- -- 71
2021-01-25 10:00:00 9.8 11 Sudoeste 19 Sudoeste 0 -- -- 73
2021-01-25 09:00:00 7.7 10 Oeste 15 Sudoeste 0 -- -- 81
2021-01-25 08:00:00 5 6 Noroeste 11 Oeste 0 -- -- 87
2021-01-25 07:00:00 4.7 7 Noroeste 13 Oeste 0 -- -- 87
2021-01-25 06:00:00 6.2 4 Noroeste 14 Oeste 0 -- -- 78
2021-01-25 05:00:00 6.6 7 Oeste 13 Oeste 0 -- -- 79
2021-01-25 04:00:00 7.9 6 Noroeste 23 Oeste 0 -- -- 73
2021-01-25 03:00:00 8.7 9 Oeste 24 Sudoeste 0 -- -- 71
2021-01-25 02:00:00 9.5 15 Sudoeste 25 Sudoeste 0 -- -- 66
2021-01-25 01:00:00 9.3 14 Sudoeste 21 Sudoeste 0 -- -- 66
2021-01-25 00:00:00 9.7 10 Sur 22 Sur 0 -- -- 64